Alev Kaman — TCCN5 — position and weather

sailwx.info

Track history (hours):
 
Tides and Currents Weather Stations Pressure Air Temp Water Temp Dewpoint Dewpoint Depression Visibility Wind Speed Wind Dir Waves Ship Positions

Alev Kaman

Last reported at 2014-Sep-23 19:29 UTC. Time now 2014-Sep-23 22:22 UTC.
Position N 40°52' E 028°43'.

Length 93 m; draft 6.1 m.

Type: Tanker. MMSI: 271000716.

Date/timePositionNaut miles runAvg speedWind from/ knotsBaromVisibWave heightAir tempDewpointWater temp
2014-Sep-23 19:29N 40°52' E 028°43'8 8.6
2014-Sep-23 18:33N 40°50' E 028°53'9 8.7
2014-Sep-23 17:33N 40°48' E 029°04'9 8.8
2014-Sep-23 16:33N 40°45' E 029°15'8 7.8
2014-Sep-23 15:32N 40°45' E 029°26'10 0.4
2014-Sep-22 16:08N 40°46' E 029°39'7 2.6
2014-Sep-22 13:33N 40°45' E 029°30'10 9.7
2014-Sep-22 12:33N 40°44' E 029°18'1110.6
2014-Sep-22 11:33N 40°44' E 029°03'1110.8
2014-Sep-22 10:33N 40°45' E 028°49'6 0.2
2014-Sep-21 09:33N 40°44' E 028°42'9 9.1
2014-Sep-21 08:33N 40°44' E 028°54'9 8.7
2014-Sep-21 07:31N 40°44' E 029°06'9 9.2
2014-Sep-21 06:33N 40°44' E 029°17'10 8.4
2014-Sep-21 05:20N 40°45' E 029°31'7 7.5
2014-Sep-21 04:23N 40°45' E 029°40'2 0.0
2014-Sep-19 07:11N 40°46' E 029°39'2 1.4
2014-Sep-19 05:24N 40°46' E 029°36'1 0.0
2014-Sep-18 13:33N 40°46' E 029°36'3 0.5
2014-Sep-18 08:09N 40°46' E 029°40'5 0.1
2014-Sep-16 20:25N 40°46' E 029°33'8 7.6
2014-Sep-16 19:23N 40°44' E 029°43'3 0.2
2014-Sep-16 05:30N 40°46' E 029°40'0 0.0
2014-Sep-15 16:11N 40°46' E 029°39'0 0.0
2014-Sep-15 13:22N 40°46' E 029°39'7 8.2
2014-Sep-15 12:32N 40°45' E 029°30'9 8.8
2014-Sep-15 11:32N 40°44' E 029°19'1010.4
2014-Sep-15 10:33N 40°44' E 029°05'1010.2
2014-Sep-15 09:33N 40°43' E 028°52'21 0.6
2014-Sep-13 21:33N 40°44' E 029°19'9 8.0
2014-Sep-13 20:24N 40°45' E 029°31'  
Track history (hours):
 
Tides and Currents Weather Stations Pressure Air Temp Water Temp Dewpoint Dewpoint Depression Visibility Wind Speed Wind Dir Waves Ship Positions

Alev Kaman

Last reported at 2014-Sep-23 19:29 UTC. Time now 2014-Sep-23 22:22 UTC.
Position N 40°52' E 028°43'.

Length 93 m; draft 6.1 m.

Type: Tanker. MMSI: 271000716.

Date/timePositionNaut miles runAvg speedWind from/ knotsBaromVisibWave heightAir tempDewpointWater temp
2014-Sep-23 19:29N 40°52' E 028°43'8 8.6
2014-Sep-23 18:33N 40°50' E 028°53'9 8.7
2014-Sep-23 17:33N 40°48' E 029°04'9 8.8
2014-Sep-23 16:33N 40°45' E 029°15'8 7.8
2014-Sep-23 15:32N 40°45' E 029°26'10 0.4
2014-Sep-22 16:08N 40°46' E 029°39'7 2.6
2014-Sep-22 13:33N 40°45' E 029°30'10 9.7
2014-Sep-22 12:33N 40°44' E 029°18'1110.6
2014-Sep-22 11:33N 40°44' E 029°03'1110.8
2014-Sep-22 10:33N 40°45' E 028°49'6 0.2
2014-Sep-21 09:33N 40°44' E 028°42'9 9.1
2014-Sep-21 08:33N 40°44' E 028°54'9 8.7
2014-Sep-21 07:31N 40°44' E 029°06'9 9.2
2014-Sep-21 06:33N 40°44' E 029°17'10 8.4
2014-Sep-21 05:20N 40°45' E 029°31'7 7.5
2014-Sep-21 04:23N 40°45' E 029°40'2 0.0
2014-Sep-19 07:11N 40°46' E 029°39'2 1.4
2014-Sep-19 05:24N 40°46' E 029°36'1 0.0
2014-Sep-18 13:33N 40°46' E 029°36'3 0.5
2014-Sep-18 08:09N 40°46' E 029°40'5 0.1
2014-Sep-16 20:25N 40°46' E 029°33'8 7.6
2014-Sep-16 19:23N 40°44' E 029°43'3 0.2
2014-Sep-16 05:30N 40°46' E 029°40'0 0.0
2014-Sep-15 16:11N 40°46' E 029°39'0 0.0
2014-Sep-15 13:22N 40°46' E 029°39'7 8.2
2014-Sep-15 12:32N 40°45' E 029°30'9 8.8
2014-Sep-15 11:32N 40°44' E 029°19'1010.4
2014-Sep-15 10:33N 40°44' E 029°05'1010.2
2014-Sep-15 09:33N 40°43' E 028°52'21 0.6
2014-Sep-13 21:33N 40°44' E 029°19'9 8.0
2014-Sep-13 20:24N 40°45' E 029°31'  

Dump ship's entire track history